Time;durP1;ratioP1;P1;durP2;ratioP2;P2;SDS_P1;SDS_P2;PMS_P1;PMS_P2;Temp;Humidity;BMP_temperature;BMP_pressure;BME280_temperature;BME280_humidity;BME280_pressure;Samples;Min_cycle;Max_cycle;Signal;HPM_P1;HPM_P2
2023/03/23 00:01:39;;;;;;;;;;;14.40;64.70;;;;;;4996808;28;20657;-76
2023/03/23 00:04:06;;;;;;;;;;;14.40;64.70;;;;;;4997921;28;20434;-76
2023/03/23 00:06:34;;;;;;;;;;;14.40;64.70;;;;;;4999787;28;20037;-77
2023/03/23 00:09:02;;;;;;;;;;;14.40;64.70;;;;;;4998682;28;19938;-76
2023/03/23 00:11:30;;;;;;;;;;;14.40;64.70;;;;;;4997977;28;19929;-77
2023/03/23 00:14:00;;;;;;;;;;;14.30;64.50;;;;;;4996934;28;19934;-77
2023/03/23 00:16:30;;;;;;;;;;;14.40;65.00;;;;;;5001602;28;19929;-77
2023/03/23 00:18:57;;;;;;;;;;;14.40;65.10;;;;;;5011669;28;19944;-77
2023/03/23 00:21:33;;;;;;;;;;;14.30;64.80;;;;;;5006969;28;21223;-77
2023/03/23 00:24:00;;;;;;;;;;;14.30;65.60;;;;;;4998340;28;20031;-77
2023/03/23 00:26:29;;;;;;;;;;;14.30;65.10;;;;;;5010828;28;20466;-76
2023/03/23 00:28:55;;;;;;;;;;;14.40;65.20;;;;;;5007735;28;20548;-77
2023/03/23 00:31:22;;;;;;;;;;;14.30;65.20;;;;;;5008623;28;20429;-77
2023/03/23 00:33:50;;;;;;;;;;;14.30;65.20;;;;;;5003029;28;19936;-76
2023/03/23 00:36:17;;;;;;;;;;;14.30;65.30;;;;;;5007141;28;19929;-76
2023/03/23 00:38:44;;;;;;;;;;;14.30;65.30;;;;;;5003058;28;20637;-75
2023/03/23 00:41:11;;;;;;;;;;;14.30;65.40;;;;;;5006930;28;19929;-75
2023/03/23 00:43:38;;;;;;;;;;;14.30;65.40;;;;;;5007011;28;20391;-75
2023/03/23 00:46:09;;;;;;;;;;;14.30;65.40;;;;;;5004831;28;20400;-77
2023/03/23 00:48:36;;;;;;;;;;;14.30;65.60;;;;;;5005325;28;19937;-76
2023/03/23 00:51:05;;;;;;;;;;;14.30;65.80;;;;;;5000210;28;20001;-77
2023/03/23 00:53:32;;;;;;;;;;;14.30;66.00;;;;;;4999004;28;19936;-76
2023/03/23 00:55:59;;;;;;;;;;;14.20;66.10;;;;;;4998405;28;19929;-75
2023/03/23 00:58:25;;;;;;;;;;;14.20;66.30;;;;;;4994988;28;20016;-76
2023/03/23 01:00:52;;;;;;;;;;;14.20;67.20;;;;;;4994531;28;19929;-77
2023/03/23 01:03:18;;;;;;;;;;;14.20;66.70;;;;;;4996241;28;19948;-76
2023/03/23 01:05:46;;;;;;;;;;;14.20;66.60;;;;;;4997688;28;19940;-76
2023/03/23 01:08:16;;;;;;;;;;;14.20;66.70;;;;;;5000626;28;20031;-76
2023/03/23 01:10:42;;;;;;;;;;;14.20;66.70;;;;;;4995141;28;19933;-75
2023/03/23 01:13:09;;;;;;;;;;;14.20;66.90;;;;;;4997032;28;19930;-77
2023/03/23 01:15:36;;;;;;;;;;;14.20;66.90;;;;;;4996267;28;19984;-77
2023/03/23 01:18:03;;;;;;;;;;;14.20;66.80;;;;;;4995037;28;20491;-77
2023/03/23 01:20:31;;;;;;;;;;;14.10;66.90;;;;;;4993987;28;20418;-77
2023/03/23 01:23:00;;;;;;;;;;;14.20;66.90;;;;;;4998053;28;19937;-76
2023/03/23 01:25:29;;;;;;;;;;;14.20;66.40;;;;;;4995820;28;19960;-77
2023/03/23 01:27:56;;;;;;;;;;;14.10;66.50;;;;;;5001709;28;19934;-79
2023/03/23 01:30:22;;;;;;;;;;;14.10;66.70;;;;;;5003537;28;20067;-74
2023/03/23 01:32:49;;;;;;;;;;;14.10;66.40;;;;;;5004810;28;19933;-74
2023/03/23 01:35:16;;;;;;;;;;;14.10;66.40;;;;;;5002323;28;19940;-75
2023/03/23 01:37:42;;;;;;;;;;;14.10;66.50;;;;;;5005222;28;20031;-75
2023/03/23 01:40:10;;;;;;;;;;;14.10;67.20;;;;;;4998078;28;19929;-75
2023/03/23 01:42:38;;;;;;;;;;;14.10;66.40;;;;;;5003141;28;19929;-76
2023/03/23 01:45:23;;;;;;;;;;;14.10;66.30;;;;;;5003826;28;20297;-77
2023/03/23 01:47:50;;;;;;;;;;;14.00;66.30;;;;;;5000910;28;19936;-76
2023/03/23 01:50:17;;;;;;;;;;;14.10;66.00;;;;;;5004723;28;20045;-76
2023/03/23 01:52:44;;;;;;;;;;;14.10;66.00;;;;;;5000610;28;19936;-74
2023/03/23 01:55:11;;;;;;;;;;;14.10;66.10;;;;;;5001779;28;19930;-73
2023/03/23 01:57:39;;;;;;;;;;;14.10;66.00;;;;;;4997452;28;19941;-74
2023/03/23 02:00:14;;;;;;;;;;;14.10;67.00;;;;;;5000782;28;19934;-77
2023/03/23 02:02:41;;;;;;;;;;;14.10;66.20;;;;;;5004317;28;20394;-75
2023/03/23 02:05:11;;;;;;;;;;;14.10;65.90;;;;;;5004560;28;19929;-76
2023/03/23 02:07:38;;;;;;;;;;;14.10;65.90;;;;;;5004885;28;19938;-75
2023/03/23 02:10:05;;;;;;;;;;;14.10;66.00;;;;;;5000245;28;20463;-78
2023/03/23 02:12:31;;;;;;;;;;;14.10;65.90;;;;;;4997612;28;19933;-77
2023/03/23 02:14:59;;;;;;;;;;;14.10;66.00;;;;;;5004256;28;19983;-76
2023/03/23 02:17:29;;;;;;;;;;;14.10;66.10;;;;;;5000438;28;19983;-78
2023/03/23 02:20:13;;;;;;;;;;;14.10;66.20;;;;;;5002686;28;20403;-79
2023/03/23 02:22:58;;;;;;;;;;;14.10;66.10;;;;;;5000218;28;19929;-76
2023/03/23 02:25:42;;;;;;;;;;;14.00;65.80;;;;;;5003380;28;19936;-77
2023/03/23 02:28:20;;;;;;;;;;;14.10;65.80;;;;;;5003777;28;19929;-75
2023/03/23 02:30:57;;;;;;;;;;;14.10;65.70;;;;;;5005510;28;19929;-73
2023/03/23 02:33:38;;;;;;;;;;;14.10;65.90;;;;;;4999118;28;19937;-76
2023/03/23 02:36:11;;;;;;;;;;;14.10;65.70;;;;;;5007468;28;20390;-77
2023/03/23 02:38:40;;;;;;;;;;;14.10;65.50;;;;;;5002286;28;19933;-76
2023/03/23 02:41:08;;;;;;;;;;;14.10;65.50;;;;;;5006999;28;19933;-76
2023/03/23 02:43:37;;;;;;;;;;;14.10;65.50;;;;;;5001984;28;20323;-77
2023/03/23 02:46:07;;;;;;;;;;;14.10;65.50;;;;;;4994995;28;20308;-78
2023/03/23 02:48:34;;;;;;;;;;;14.10;65.50;;;;;;4996519;28;19929;-77
2023/03/23 02:51:01;;;;;;;;;;;14.00;65.60;;;;;;4998849;28;19930;-77
2023/03/23 02:53:30;;;;;;;;;;;14.10;65.70;;;;;;4999820;28;20322;-76
2023/03/23 02:55:57;;;;;;;;;;;14.10;65.70;;;;;;4997826;28;19930;-77
2023/03/23 02:58:25;;;;;;;;;;;14.10;65.80;;;;;;4997155;28;19937;-75
2023/03/23 03:00:52;;;;;;;;;;;14.10;65.90;;;;;;4997587;28;19929;-77
2023/03/23 03:03:20;;;;;;;;;;;14.10;65.90;;;;;;4994187;28;19938;-76
2023/03/23 03:05:51;;;;;;;;;;;14.10;65.80;;;;;;4996690;28;19930;-76
2023/03/23 03:08:23;;;;;;;;;;;14.00;65.70;;;;;;4995619;28;20412;-76
2023/03/23 03:10:53;;;;;;;;;;;14.10;65.80;;;;;;4996303;28;19987;-76
2023/03/23 03:13:26;;;;;;;;;;;14.10;65.80;;;;;;5002386;28;19940;-76
2023/03/23 03:15:55;;;;;;;;;;;14.10;66.00;;;;;;4997125;28;19940;-76
2023/03/23 03:18:23;;;;;;;;;;;14.10;66.10;;;;;;4995785;28;19976;-74
2023/03/23 03:20:53;;;;;;;;;;;14.10;66.10;;;;;;4995040;28;19930;-73
2023/03/23 03:23:20;;;;;;;;;;;14.10;66.20;;;;;;4998940;28;20307;-74
2023/03/23 03:25:48;;;;;;;;;;;14.10;66.20;;;;;;4997211;28;20017;-76
2023/03/23 03:28:21;;;;;;;;;;;14.10;67.00;;;;;;4993291;28;19929;-75
2023/03/23 03:30:48;;;;;;;;;;;14.00;66.20;;;;;;5000030;28;19936;-75
2023/03/23 03:33:15;;;;;;;;;;;14.10;66.30;;;;;;4994802;28;19933;-75
2023/03/23 03:35:42;;;;;;;;;;;14.10;66.30;;;;;;5000898;28;20213;-76
2023/03/23 03:38:10;;;;;;;;;;;14.00;66.20;;;;;;5001692;28;19929;-76
2023/03/23 03:40:37;;;;;;;;;;;14.10;66.10;;;;;;4996513;28;19936;-76
2023/03/23 03:43:04;;;;;;;;;;;14.10;66.10;;;;;;4996658;28;19984;-75
2023/03/23 03:45:32;;;;;;;;;;;14.00;66.10;;;;;;4996448;28;20590;-78
2023/03/23 03:47:58;;;;;;;;;;;14.10;66.30;;;;;;4999185;28;19936;-75
2023/03/23 03:50:26;;;;;;;;;;;14.00;66.30;;;;;;4999078;28;19936;-77
2023/03/23 03:52:52;;;;;;;;;;;14.00;66.40;;;;;;4997742;28;19936;-75
2023/03/23 03:55:19;;;;;;;;;;;14.10;66.50;;;;;;5005924;28;19929;-75
2023/03/23 03:57:45;;;;;;;;;;;14.00;66.50;;;;;;5004315;28;19933;-77
2023/03/23 04:00:14;;;;;;;;;;;14.10;66.70;;;;;;5001636;28;20672;-75
2023/03/23 04:02:44;;;;;;;;;;;14.00;66.80;;;;;;5001892;28;20446;-76
2023/03/23 04:05:11;;;;;;;;;;;14.00;66.90;;;;;;5007173;28;19926;-75
2023/03/23 04:07:39;;;;;;;;;;;14.00;67.10;;;;;;5005172;28;19939;-74
2023/03/23 04:10:06;;;;;;;;;;;14.00;67.20;;;;;;5004242;28;19929;-75
2023/03/23 04:12:33;;;;;;;;;;;14.00;67.30;;;;;;5003037;28;19929;-74
2023/03/23 04:14:59;;;;;;;;;;;14.00;67.40;;;;;;5005343;28;19930;-75
2023/03/23 04:17:26;;;;;;;;;;;14.00;67.40;;;;;;4997287;28;19945;-74
2023/03/23 04:19:56;;;;;;;;;;;14.00;67.50;;;;;;5006876;28;19991;-74
2023/03/23 04:22:29;;;;;;;;;;;14.00;67.70;;;;;;5004707;28;19936;-74
2023/03/23 04:24:58;;;;;;;;;;;14.00;67.70;;;;;;5003785;28;19937;-75
2023/03/23 04:27:25;;;;;;;;;;;14.00;67.70;;;;;;5004147;28;19929;-74
2023/03/23 04:29:51;;;;;;;;;;;14.00;67.80;;;;;;5007275;28;19930;-75
2023/03/23 04:32:18;;;;;;;;;;;14.00;67.90;;;;;;5001410;28;19935;-74
2023/03/23 04:34:45;;;;;;;;;;;14.00;68.10;;;;;;5008043;28;20012;-74
2023/03/23 04:37:13;;;;;;;;;;;14.00;68.20;;;;;;5005704;28;19937;-73
2023/03/23 04:39:41;;;;;;;;;;;14.00;68.30;;;;;;5004807;28;20023;-74
2023/03/23 04:42:09;;;;;;;;;;;14.00;68.40;;;;;;5008742;28;20021;-74
2023/03/23 04:44:35;;;;;;;;;;;14.00;68.50;;;;;;5005258;28;20692;-74
2023/03/23 04:47:02;;;;;;;;;;;14.00;68.60;;;;;;5003829;28;19933;-75
2023/03/23 04:49:29;;;;;;;;;;;13.90;68.60;;;;;;5003414;28;19929;-75
2023/03/23 04:51:56;;;;;;;;;;;14.00;68.80;;;;;;5004657;28;19937;-74
2023/03/23 04:54:24;;;;;;;;;;;14.00;68.90;;;;;;5000806;28;20023;-74
2023/03/23 04:56:50;;;;;;;;;;;13.90;68.90;;;;;;5004789;28;19929;-74
2023/03/23 04:59:17;;;;;;;;;;;13.90;68.90;;;;;;4995607;28;19929;-74
2023/03/23 05:01:45;;;;;;;;;;;13.90;69.00;;;;;;4997884;28;19929;-76
2023/03/23 05:04:16;;;;;;;;;;;13.90;69.00;;;;;;4997087;28;19941;-74
2023/03/23 05:06:44;;;;;;;;;;;13.90;69.20;;;;;;4998717;28;19929;-74
2023/03/23 05:09:11;;;;;;;;;;;13.90;69.20;;;;;;4996482;28;19929;-75
2023/03/23 05:11:39;;;;;;;;;;;13.90;69.20;;;;;;4999726;28;19933;-75
2023/03/23 05:14:05;;;;;;;;;;;13.90;69.30;;;;;;4998754;28;19929;-74
2023/03/23 05:16:32;;;;;;;;;;;13.90;69.30;;;;;;4997851;28;19925;-75
2023/03/23 05:18:59;;;;;;;;;;;13.90;69.40;;;;;;4996792;28;19937;-75
2023/03/23 05:21:26;;;;;;;;;;;13.90;69.40;;;;;;5004114;28;20006;-74
2023/03/23 05:23:54;;;;;;;;;;;13.90;69.50;;;;;;4997258;28;19988;-75
2023/03/23 05:26:21;;;;;;;;;;;13.90;69.60;;;;;;5001195;28;20311;-74
2023/03/23 05:28:52;;;;;;;;;;;13.90;69.80;;;;;;5002058;28;19951;-74
2023/03/23 05:31:18;;;;;;;;;;;13.90;69.90;;;;;;5002278;28;19929;-74
2023/03/23 05:33:45;;;;;;;;;;;13.90;70.70;;;;;;5001042;28;20020;-74
2023/03/23 05:36:13;;;;;;;;;;;13.90;71.50;;;;;;5007252;28;20048;-74
2023/03/23 05:38:42;;;;;;;;;;;13.90;71.70;;;;;;5003204;28;19925;-74
2023/03/23 05:41:08;;;;;;;;;;;13.80;71.60;;;;;;5002458;28;19929;-75
2023/03/23 05:43:35;;;;;;;;;;;13.90;71.80;;;;;;5003059;28;19940;-74
2023/03/23 05:46:03;;;;;;;;;;;13.90;71.90;;;;;;5000955;28;19929;-75
2023/03/23 05:48:29;;;;;;;;;;;13.90;72.20;;;;;;4996168;28;19941;-76
2023/03/23 05:50:56;;;;;;;;;;;13.80;72.40;;;;;;4996121;28;19937;-74
2023/03/23 05:53:23;;;;;;;;;;;13.80;72.60;;;;;;4997423;28;20475;-74
2023/03/23 05:55:51;;;;;;;;;;;13.80;72.70;;;;;;4996165;28;20835;-75
2023/03/23 05:58:17;;;;;;;;;;;13.80;72.60;;;;;;5002719;28;19941;-73
2023/03/23 06:00:45;;;;;;;;;;;13.80;72.60;;;;;;4996790;28;19933;-74
2023/03/23 06:03:12;;;;;;;;;;;13.80;72.60;;;;;;4998473;28;19933;-73
2023/03/23 06:05:43;;;;;;;;;;;13.80;72.60;;;;;;5000882;28;20454;-73
2023/03/23 06:08:11;;;;;;;;;;;13.80;72.60;;;;;;5001042;28;20632;-73
2023/03/23 06:10:38;;;;;;;;;;;13.80;72.60;;;;;;4994038;28;19940;-74
2023/03/23 06:13:04;;;;;;;;;;;13.80;73.50;;;;;;4998723;28;19930;-75
2023/03/23 06:15:32;;;;;;;;;;;13.80;72.80;;;;;;4999571;28;20047;-75
2023/03/23 06:17:59;;;;;;;;;;;13.80;72.80;;;;;;5002671;28;19936;-73
2023/03/23 06:20:27;;;;;;;;;;;13.80;72.80;;;;;;5003718;28;19933;-75
2023/03/23 06:22:53;;;;;;;;;;;13.80;72.80;;;;;;4996634;28;19937;-73
2023/03/23 06:25:20;;;;;;;;;;;13.70;72.80;;;;;;5002899;28;20376;-75
2023/03/23 06:27:47;;;;;;;;;;;13.70;72.80;;;;;;5001680;28;19930;-74
2023/03/23 06:30:14;;;;;;;;;;;13.70;72.90;;;;;;5006834;28;20024;-72
2023/03/23 06:32:41;;;;;;;;;;;13.70;73.10;;;;;;5002700;28;19984;-71
2023/03/23 06:35:09;;;;;;;;;;;13.70;73.00;;;;;;5012415;28;19933;-70
2023/03/23 06:37:37;;;;;;;;;;;13.70;73.10;;;;;;5008821;28;19929;-72
2023/03/23 06:40:05;;;;;;;;;;;13.70;73.20;;;;;;5001345;28;19932;-75
2023/03/23 06:42:32;;;;;;;;;;;13.70;73.30;;;;;;5004818;28;19929;-74
2023/03/23 06:45:00;;;;;;;;;;;13.70;73.50;;;;;;5005276;28;20308;-72
2023/03/23 06:47:27;;;;;;;;;;;13.70;73.60;;;;;;5004052;28;20371;-74
2023/03/23 06:49:53;;;;;;;;;;;13.70;73.70;;;;;;5002116;28;19929;-72
2023/03/23 06:52:20;;;;;;;;;;;13.70;73.90;;;;;;5009079;28;19999;-72
2023/03/23 06:54:48;;;;;;;;;;;13.60;73.90;;;;;;5001524;28;19961;-70
2023/03/23 06:57:15;;;;;;;;;;;13.70;74.00;;;;;;5001901;28;19948;-71
2023/03/23 06:59:42;;;;;;;;;;;13.70;74.10;;;;;;5002683;28;19930;-71
2023/03/23 07:02:09;;;;;;;;;;;13.60;74.20;;;;;;5004820;28;20028;-74
2023/03/23 07:04:35;;;;;;;;;;;13.70;74.30;;;;;;5002905;28;20008;-73
2023/03/23 07:07:02;;;;;;;;;;;13.60;74.30;;;;;;5001615;28;20084;-75
2023/03/23 07:09:29;;;;;;;;;;;13.60;74.40;;;;;;5005259;28;19929;-72
2023/03/23 07:11:56;;;;;;;;;;;13.60;74.40;;;;;;5008753;28;19929;-72
2023/03/23 07:14:23;;;;;;;;;;;13.60;74.40;;;;;;5007302;28;19936;-70
2023/03/23 07:16:50;;;;;;;;;;;13.60;74.50;;;;;;5004849;28;19930;-73
2023/03/23 07:19:16;;;;;;;;;;;13.60;74.60;;;;;;5007809;28;19936;-72
2023/03/23 07:21:43;;;;;;;;;;;13.70;74.80;;;;;;5002282;28;19930;-73
2023/03/23 07:24:12;;;;;;;;;;;13.60;74.70;;;;;;5003302;28;19926;-70
2023/03/23 07:26:38;;;;;;;;;;;13.60;75.00;;;;;;5002666;28;19948;-73
2023/03/23 07:29:06;;;;;;;;;;;13.60;75.20;;;;;;5006117;28;19952;-74
2023/03/23 07:31:33;;;;;;;;;;;13.60;76.10;;;;;;5008418;28;19966;-75
2023/03/23 07:34:00;;;;;;;;;;;13.60;75.60;;;;;;5007731;28;19929;-73
2023/03/23 07:36:27;;;;;;;;;;;13.60;75.60;;;;;;5012455;28;19926;-73
2023/03/23 07:38:54;;;;;;;;;;;13.60;75.70;;;;;;5007363;28;19933;-74
2023/03/23 07:41:21;;;;;;;;;;;13.60;75.60;;;;;;5013208;28;19980;-71
2023/03/23 07:43:48;;;;;;;;;;;13.60;76.00;;;;;;5012271;28;19929;-71
2023/03/23 07:46:16;;;;;;;;;;;13.60;76.40;;;;;;5008656;28;19929;-74
2023/03/23 07:48:42;;;;;;;;;;;13.60;76.50;;;;;;4998879;28;19933;-74
2023/03/23 07:51:09;;;;;;;;;;;13.60;76.40;;;;;;5002477;28;20399;-73
2023/03/23 07:53:36;;;;;;;;;;;13.60;76.50;;;;;;5007934;28;20394;-73
2023/03/23 07:56:03;;;;;;;;;;;13.60;76.80;;;;;;5006996;28;19952;-74
2023/03/23 07:58:30;;;;;;;;;;;13.60;76.80;;;;;;5000286;28;19929;-71
2023/03/23 08:00:57;;;;;;;;;;;13.60;76.80;;;;;;5005316;28;19940;-74
2023/03/23 08:03:26;;;;;;;;;;;13.60;77.10;;;;;;5001324;28;20000;-72
2023/03/23 08:05:52;;;;;;;;;;;13.60;77.10;;;;;;5004857;28;19979;-71
2023/03/23 08:08:19;;;;;;;;;;;13.60;77.20;;;;;;5006501;28;19933;-71
2023/03/23 08:10:45;;;;;;;;;;;13.50;77.40;;;;;;5007941;28;19943;-72
2023/03/23 08:13:12;;;;;;;;;;;13.60;77.50;;;;;;5010833;28;19937;-74
2023/03/23 08:15:39;;;;;;;;;;;13.60;77.60;;;;;;5005105;28;20388;-73
2023/03/23 08:18:05;;;;;;;;;;;13.60;77.80;;;;;;5003298;28;19933;-75
2023/03/23 08:20:33;;;;;;;;;;;13.50;77.80;;;;;;5012560;28;19929;-74
2023/03/23 08:23:01;;;;;;;;;;;13.60;77.80;;;;;;5007575;28;19949;-75
2023/03/23 08:25:30;;;;;;;;;;;13.50;77.70;;;;;;5005851;28;19981;-71
2023/03/23 08:27:57;;;;;;;;;;;13.50;77.60;;;;;;5005858;28;19960;-72
2023/03/23 08:30:25;;;;;;;;;;;13.50;77.70;;;;;;5005642;28;19937;-72
2023/03/23 08:32:52;;;;;;;;;;;13.60;77.80;;;;;;5004572;28;19926;-71
2023/03/23 08:35:19;;;;;;;;;;;13.50;77.70;;;;;;4999724;28;20016;-74
2023/03/23 08:37:50;;;;;;;;;;;13.50;77.80;;;;;;5006103;28;19987;-73
2023/03/23 08:40:19;;;;;;;;;;;13.50;77.90;;;;;;5004122;28;19922;-74
2023/03/23 08:42:47;;;;;;;;;;;13.50;78.10;;;;;;5008094;28;19936;-72
2023/03/23 08:45:15;;;;;;;;;;;13.50;78.00;;;;;;5006872;28;19930;-73
2023/03/23 08:47:41;;;;;;;;;;;13.50;78.20;;;;;;5007251;28;19934;-74
2023/03/23 08:50:10;;;;;;;;;;;13.60;78.30;;;;;;4999644;28;19937;-76
2023/03/23 08:52:37;;;;;;;;;;;13.60;78.40;;;;;;5005847;28;19925;-74
2023/03/23 08:55:08;;;;;;;;;;;13.50;78.60;;;;;;4997222;28;19937;-75
2023/03/23 08:57:35;;;;;;;;;;;13.60;79.00;;;;;;5008060;28;19932;-74
2023/03/23 09:00:13;;;;;;;;;;;13.60;79.40;;;;;;5007550;28;19976;-76
2023/03/23 09:02:40;;;;;;;;;;;13.60;79.60;;;;;;5003802;28;21129;-71
2023/03/23 09:05:07;;;;;;;;;;;13.60;79.30;;;;;;5007480;28;19930;-72
2023/03/23 09:07:33;;;;;;;;;;;13.60;79.50;;;;;;5004086;28;20024;-72
2023/03/23 09:10:00;;;;;;;;;;;13.60;80.00;;;;;;5007551;28;19933;-72
2023/03/23 09:12:29;;;;;;;;;;;13.60;80.00;;;;;;5005618;28;20576;-72
2023/03/23 09:14:56;;;;;;;;;;;13.60;80.10;;;;;;5008025;28;20013;-74
2023/03/23 09:17:22;;;;;;;;;;;13.60;80.20;;;;;;5005579;28;19935;-74
2023/03/23 09:19:49;;;;;;;;;;;13.60;80.00;;;;;;5004864;28;20339;-72
2023/03/23 09:22:19;;;;;;;;;;;13.60;80.10;;;;;;5004197;28;19964;-72
2023/03/23 09:24:46;;;;;;;;;;;13.60;80.50;;;;;;5003830;28;19935;-73
2023/03/23 09:27:12;;;;;;;;;;;13.60;80.70;;;;;;5006131;28;19941;-71
2023/03/23 09:29:40;;;;;;;;;;;13.60;80.80;;;;;;5005760;28;19934;-74
2023/03/23 09:32:07;;;;;;;;;;;13.60;80.80;;;;;;5010196;28;19936;-72
2023/03/23 09:34:35;;;;;;;;;;;13.60;80.70;;;;;;5006417;28;20285;-72
2023/03/23 09:37:04;;;;;;;;;;;13.60;80.90;;;;;;5005528;28;20392;-74
2023/03/23 09:39:31;;;;;;;;;;;13.60;81.10;;;;;;5004430;28;20399;-74
2023/03/23 09:42:17;;;;;;;;;;;13.60;81.20;;;;;;5010835;28;19956;-73
2023/03/23 09:44:52;;;;;;;;;;;13.60;81.20;;;;;;5001388;28;19937;-73
2023/03/23 09:47:22;;;;;;;;;;;13.60;81.30;;;;;;5005029;28;19980;-74
2023/03/23 09:49:51;;;;;;;;;;;13.70;81.20;;;;;;5004685;28;19929;-72
2023/03/23 09:52:19;;;;;;;;;;;13.60;81.30;;;;;;5004563;28;19929;-72
2023/03/23 09:54:47;;;;;;;;;;;13.70;81.40;;;;;;5001793;28;19991;-72
2023/03/23 09:57:17;;;;;;;;;;;13.70;81.30;;;;;;5006113;28;19933;-74
2023/03/23 09:59:47;;;;;;;;;;;13.70;81.50;;;;;;5007249;28;20458;-73
2023/03/23 10:02:17;;;;;;;;;;;13.70;81.50;;;;;;4997007;28;19964;-73
2023/03/23 10:04:45;;;;;;;;;;;13.70;81.60;;;;;;5006521;28;19973;-72
2023/03/23 10:07:13;;;;;;;;;;;13.70;81.60;;;;;;5001295;28;19929;-71
2023/03/23 10:09:40;;;;;;;;;;;13.70;81.90;;;;;;5005170;28;19933;-72
2023/03/23 10:12:11;;;;;;;;;;;13.70;82.30;;;;;;5004663;28;19929;-72
2023/03/23 10:14:43;;;;;;;;;;;13.70;82.70;;;;;;5006093;28;19933;-72
2023/03/23 10:17:14;;;;;;;;;;;13.60;82.50;;;;;;5006446;28;19929;-72
2023/03/23 10:19:46;;;;;;;;;;;13.70;83.00;;;;;;5009113;28;20563;-71
2023/03/23 10:22:13;;;;;;;;;;;13.70;83.60;;;;;;5004966;28;19933;-72
2023/03/23 10:24:43;;;;;;;;;;;13.70;84.10;;;;;;5003866;28;20383;-71
2023/03/23 10:27:17;;;;;;;;;;;13.70;84.20;;;;;;5005542;28;20434;-71
2023/03/23 10:29:46;;;;;;;;;;;13.70;84.10;;;;;;5006168;28;19929;-75
2023/03/23 10:32:15;;;;;;;;;;;13.70;84.30;;;;;;5003433;28;19929;-71
2023/03/23 10:34:45;;;;;;;;;;;13.70;84.50;;;;;;4999885;28;19937;-70
2023/03/23 10:37:13;;;;;;;;;;;13.70;84.80;;;;;;5006984;28;19933;-72
2023/03/23 10:39:44;;;;;;;;;;;13.60;85.20;;;;;;5004976;28;19937;-74
2023/03/23 10:42:11;;;;;;;;;;;13.70;85.50;;;;;;5004444;28;19941;-73
2023/03/23 10:44:37;;;;;;;;;;;13.70;86.20;;;;;;5005150;28;19933;-74
2023/03/23 10:47:05;;;;;;;;;;;13.60;86.60;;;;;;5006017;28;20404;-75
2023/03/23 10:49:35;;;;;;;;;;;13.70;87.00;;;;;;5004016;28;19937;-74
2023/03/23 10:52:05;;;;;;;;;;;13.60;87.10;;;;;;5000089;28;19934;-74
2023/03/23 10:54:34;;;;;;;;;;;13.60;86.80;;;;;;5000144;28;19936;-73
2023/03/23 10:57:01;;;;;;;;;;;13.60;86.80;;;;;;5003025;28;19929;-75
2023/03/23 10:59:29;;;;;;;;;;;13.60;87.20;;;;;;5005044;28;19933;-71
2023/03/23 11:01:58;;;;;;;;;;;13.60;87.20;;;;;;5004285;28;20646;-72
2023/03/23 11:04:26;;;;;;;;;;;13.60;86.90;;;;;;5010611;28;19934;-75
2023/03/23 11:06:53;;;;;;;;;;;13.60;86.80;;;;;;5005026;28;20381;-72
2023/03/23 11:09:22;;;;;;;;;;;13.60;87.00;;;;;;5006967;28;19933;-73
2023/03/23 11:11:50;;;;;;;;;;;13.60;87.10;;;;;;5004137;28;19930;-75
2023/03/23 11:14:18;;;;;;;;;;;13.60;87.20;;;;;;5007707;28;19933;-72
2023/03/23 11:16:46;;;;;;;;;;;13.60;87.00;;;;;;5002427;28;20036;-75
2023/03/23 11:19:14;;;;;;;;;;;13.60;87.50;;;;;;5005188;28;19933;-73
2023/03/23 11:21:46;;;;;;;;;;;13.60;88.00;;;;;;5009100;28;20016;-72
2023/03/23 11:24:12;;;;;;;;;;;13.60;88.00;;;;;;5004896;28;19929;-72
2023/03/23 11:26:44;;;;;;;;;;;13.70;87.90;;;;;;5006428;28;19932;-72
2023/03/23 11:29:13;;;;;;;;;;;13.60;88.00;;;;;;5005426;28;19934;-71
2023/03/23 11:31:41;;;;;;;;;;;13.60;87.80;;;;;;5006514;28;19990;-73
2023/03/23 11:34:12;;;;;;;;;;;13.70;88.50;;;;;;5008853;28;20297;-74
2023/03/23 11:36:41;;;;;;;;;;;13.60;87.50;;;;;;5010245;28;20069;-73
2023/03/23 11:39:20;;;;;;;;;;;13.70;87.50;;;;;;5009712;28;19969;-71
2023/03/23 11:41:48;;;;;;;;;;;13.70;87.40;;;;;;5006402;28;19936;-71
2023/03/23 11:44:16;;;;;;;;;;;13.70;87.50;;;;;;5007328;28;20473;-73
2023/03/23 11:46:50;;;;;;;;;;;13.70;87.40;;;;;;5007603;28;19929;-71
2023/03/23 11:49:21;;;;;;;;;;;13.70;87.30;;;;;;5005982;28;19949;-73
2023/03/23 11:51:49;;;;;;;;;;;13.70;87.30;;;;;;5007151;28;19937;-71
2023/03/23 11:54:17;;;;;;;;;;;13.70;87.10;;;;;;5008399;28;19932;-72
2023/03/23 11:56:45;;;;;;;;;;;13.70;87.00;;;;;;5005415;28;19952;-74
2023/03/23 11:59:14;;;;;;;;;;;13.70;86.90;;;;;;5009209;28;20013;-71
2023/03/23 12:01:45;;;;;;;;;;;13.70;86.70;;;;;;5005456;28;19975;-72
2023/03/23 12:04:30;;;;;;;;;;;13.70;86.60;;;;;;5005997;28;19926;-72
2023/03/23 12:07:02;;;;;;;;;;;13.70;86.60;;;;;;4998844;28;19983;-72
2023/03/23 12:09:39;;;;;;;;;;;13.70;86.50;;;;;;5010564;28;19929;-75
2023/03/23 12:12:10;;;;;;;;;;;13.70;86.40;;;;;;5009740;28;20490;-74
2023/03/23 12:14:43;;;;;;;;;;;13.70;86.40;;;;;;5013634;28;19929;-72
2023/03/23 12:17:17;;;;;;;;;;;13.70;86.30;;;;;;5007237;28;20030;-72
2023/03/23 12:19:47;;;;;;;;;;;13.70;86.40;;;;;;5009446;28;20329;-73
2023/03/23 12:22:20;;;;;;;;;;;13.80;86.30;;;;;;5007489;28;19929;-72
2023/03/23 12:24:53;;;;;;;;;;;13.80;86.10;;;;;;5001352;28;19939;-73
2023/03/23 12:27:25;;;;;;;;;;;13.70;85.90;;;;;;5010568;28;19939;-73
2023/03/23 12:30:03;;;;;;;;;;;13.70;85.80;;;;;;5006058;28;20458;-74
2023/03/23 12:32:43;;;;;;;;;;;13.80;85.70;;;;;;5003094;28;20283;-74
2023/03/23 12:35:16;;;;;;;;;;;13.80;85.60;;;;;;5006334;28;20640;-72
2023/03/23 12:37:48;;;;;;;;;;;13.70;85.50;;;;;;5007223;28;19939;-72
2023/03/23 12:40:29;;;;;;;;;;;13.80;85.50;;;;;;5004769;28;19929;-74
2023/03/23 12:42:59;;;;;;;;;;;13.80;85.50;;;;;;5006289;28;19936;-75
2023/03/23 12:45:42;;;;;;;;;;;13.80;85.50;;;;;;5007461;28;19987;-74
2023/03/23 12:48:11;;;;;;;;;;;13.80;85.40;;;;;;4998663;28;19937;-73
2023/03/23 12:50:40;;;;;;;;;;;13.80;85.30;;;;;;5009128;28;19929;-73
2023/03/23 12:53:11;;;;;;;;;;;13.80;85.30;;;;;;5002830;28;20656;-73
2023/03/23 12:55:41;;;;;;;;;;;13.80;85.20;;;;;;5009585;28;20416;-74
2023/03/23 12:58:09;;;;;;;;;;;13.80;85.30;;;;;;5000993;28;19991;-72
2023/03/23 13:00:49;;;;;;;;;;;13.80;85.30;;;;;;5003353;28;19936;-74
2023/03/23 13:03:19;;;;;;;;;;;13.80;85.20;;;;;;5003973;28;19980;-73
2023/03/23 13:05:54;;;;;;;;;;;13.80;85.10;;;;;;5006513;28;19929;-71
2023/03/23 13:08:24;;;;;;;;;;;13.80;85.00;;;;;;5005640;28;20293;-73
2023/03/23 13:10:51;;;;;;;;;;;13.80;84.90;;;;;;5006456;28;19929;-72
2023/03/23 13:13:19;;;;;;;;;;;13.80;84.70;;;;;;5004390;28;19929;-72
2023/03/23 13:15:51;;;;;;;;;;;13.80;84.70;;;;;;5005900;28;19929;-73
2023/03/23 13:18:21;;;;;;;;;;;13.90;84.70;;;;;;5003631;28;19939;-71
2023/03/23 13:20:51;;;;;;;;;;;13.90;84.60;;;;;;5009214;28;19937;-72
2023/03/23 13:23:20;;;;;;;;;;;13.80;84.50;;;;;;5006385;28;19933;-71
2023/03/23 13:25:57;;;;;;;;;;;13.80;84.50;;;;;;5007081;28;19929;-73
2023/03/23 13:28:28;;;;;;;;;;;13.90;84.50;;;;;;5001971;28;19936;-73
2023/03/23 13:31:03;;;;;;;;;;;13.80;84.40;;;;;;5006165;28;19929;-72
2023/03/23 13:33:31;;;;;;;;;;;13.90;84.40;;;;;;5001519;28;19929;-76
2023/03/23 13:36:05;;;;;;;;;;;13.90;84.30;;;;;;5002408;28;20013;-72
2023/03/23 13:38:32;;;;;;;;;;;13.90;84.20;;;;;;5003544;28;19929;-74
2023/03/23 13:40:59;;;;;;;;;;;13.80;84.00;;;;;;5002160;28;20701;-73
2023/03/23 13:43:27;;;;;;;;;;;13.90;83.90;;;;;;5001417;28;19930;-75
2023/03/23 13:45:55;;;;;;;;;;;13.90;83.80;;;;;;5003950;28;19929;-72
2023/03/23 13:48:24;;;;;;;;;;;13.90;83.70;;;;;;5000256;28;19936;-73
2023/03/23 13:50:52;;;;;;;;;;;13.90;83.60;;;;;;5004477;28;20347;-71
2023/03/23 13:53:25;;;;;;;;;;;13.90;83.50;;;;;;5002924;28;19933;-75
2023/03/23 13:55:56;;;;;;;;;;;14.00;83.40;;;;;;4999760;28;20023;-75
2023/03/23 13:58:24;;;;;;;;;;;14.00;83.30;;;;;;4998189;28;20040;-76
2023/03/23 14:01:01;;;;;;;;;;;14.00;83.20;;;;;;4999083;28;19933;-77
2023/03/23 14:03:34;;;;;;;;;;;13.90;83.00;;;;;;4998735;28;20056;-74
2023/03/23 14:06:03;;;;;;;;;;;14.00;82.90;;;;;;5001380;28;19929;-76
2023/03/23 14:08:38;;;;;;;;;;;14.10;82.90;;;;;;4996998;28;19976;-74
2023/03/23 14:11:11;;;;;;;;;;;14.00;82.70;;;;;;4998957;28;19937;-75
2023/03/23 14:13:43;;;;;;;;;;;14.00;82.60;;;;;;4999729;28;19936;-74
2023/03/23 14:16:16;;;;;;;;;;;14.10;82.60;;;;;;5000888;28;19929;-75
2023/03/23 14:18:49;;;;;;;;;;;14.10;82.50;;;;;;5002425;28;20012;-74
2023/03/23 14:21:22;;;;;;;;;;;14.10;82.50;;;;;;5013119;28;19933;-74
2023/03/23 14:23:48;;;;;;;;;;;14.10;82.40;;;;;;5000971;28;19941;-76
2023/03/23 14:26:16;;;;;;;;;;;14.00;82.30;;;;;;5000284;28;20387;-76